49NE weather

Harden Airstrip
North Platte, Nebraska, United States

Public forecast

Using degrees Fahrenheit for public forecast. Weather courtesy of forecast.io.

Closest aviation weather report (METAR) to Harden Airstrip

Closest report is North Platte Regional Airport Lee Bird Field, 4.2 nm (7.7 km) NNE. Retrieved 2019/10/17 08:53 UTC (51 minutes ago):

KLBF 170853Z AUTO 34003KT 10SM CLR 01/M02 A2988 RMK AO2 SLP119 T00061017 56015

Closest aviation forecast (TAF) to Harden Airstrip

Closest forecast is North Platte Regional Airport Lee Bird Field, 4.2 nm (7.7 km) NNE. Retrieved 2019/10/17 06:22 UTC (3 hours ago):

TAF KLBF 170520Z 1706/1806 VRB04KT P6SM FEW250 FM171800 17011KT P6SM SCT250 FM180100 13010KT P6SM SCT250 FM180300 13009KT P6SM SCT250 WS020/18045KT